createdAt,value
2023-02-19T00:01:56.989Z,97766.28
2023-02-19T00:04:23.761Z,97765.97
2023-02-19T00:06:53.155Z,97759.44
2023-02-19T00:09:20.333Z,97763.91
2023-02-19T00:11:49.789Z,97766.59
2023-02-19T00:14:21.437Z,97767.13
2023-02-19T00:16:49.013Z,97760.91
2023-02-19T00:19:18.812Z,97767.38
2023-02-19T00:21:48.317Z,97768.50
2023-02-19T00:24:17.480Z,97764.66
2023-02-19T00:26:45.712Z,97772.75
2023-02-19T00:29:25.086Z,97773.13
2023-02-19T00:31:51.988Z,97778.47
2023-02-19T00:34:18.611Z,97766.69
2023-02-19T00:36:49.636Z,97765.97
2023-02-19T00:39:21.392Z,97764.69
2023-02-19T00:41:48.009Z,97760.41
2023-02-19T00:44:17.024Z,97756.88
2023-02-19T00:46:50.385Z,97764.97
2023-02-19T00:49:20.850Z,97764.69
2023-02-19T00:51:48.156Z,97762.72
2023-02-19T00:54:18.446Z,97755.88
2023-02-19T00:56:45.183Z,97761.72
2023-02-19T00:59:12.084Z,97756.75
2023-02-19T01:01:40.885Z,97764.00
2023-02-19T01:04:08.014Z,97762.44
2023-02-19T01:06:35.606Z,97759.03
2023-02-19T01:09:05.468Z,97751.41
2023-02-19T01:11:32.029Z,97760.72
2023-02-19T01:14:00.349Z,97760.38
2023-02-19T01:16:30.973Z,97762.75
2023-02-19T01:18:58.092Z,97763.53
2023-02-19T01:21:29.212Z,97754.00
2023-02-19T01:23:56.686Z,97755.97
2023-02-19T01:26:32.145Z,97757.56
2023-02-19T01:29:02.624Z,97749.50
2023-02-19T01:31:30.544Z,97751.03
2023-02-19T01:34:03.806Z,97745.25
2023-02-19T01:36:37.413Z,97750.28
2023-02-19T01:39:06.322Z,97754.13
2023-02-19T01:41:42.174Z,97760.66
2023-02-19T01:44:28.926Z,97761.03
2023-02-19T01:46:57.638Z,97759.81
2023-02-19T01:49:33.207Z,97751.63
2023-02-19T01:52:06.411Z,97754.66
2023-02-19T01:54:37.935Z,97743.84
2023-02-19T01:57:07.836Z,97737.63
2023-02-19T01:59:34.864Z,97734.19
2023-02-19T02:02:01.661Z,97724.84
2023-02-19T02:04:33.455Z,97726.34
2023-02-19T02:07:02.804Z,97734.00
2023-02-19T02:09:49.847Z,97727.78
2023-02-19T02:12:16.387Z,97717.38
2023-02-19T02:14:47.003Z,97720.41
2023-02-19T02:17:30.448Z,97709.59
2023-02-19T02:20:41.683Z,97708.81
2023-02-19T02:23:20.144Z,97711.84
2023-02-19T02:25:55.956Z,97715.69
2023-02-19T02:28:44.359Z,97705.34
2023-02-19T02:31:18.402Z,97700.31
2023-02-19T02:33:45.003Z,97711.09
2023-02-19T02:36:24.685Z,97698.81
2023-02-19T02:38:56.909Z,97697.63
2023-02-19T02:41:23.489Z,97704.75
2023-02-19T02:43:52.365Z,97699.53
2023-02-19T02:46:28.228Z,97694.53
2023-02-19T02:49:01.984Z,97694.97
2023-02-19T02:51:34.414Z,97692.69
2023-02-19T02:54:25.548Z,97683.84
2023-02-19T02:56:55.081Z,97689.66
2023-02-19T02:59:27.838Z,97686.94
2023-02-19T03:02:12.469Z,97691.66
2023-02-19T03:05:14.359Z,97694.41
2023-02-19T03:08:16.812Z,97682.09
2023-02-19T03:10:55.898Z,97692.94
2023-02-19T03:13:49.718Z,97695.25
2023-02-19T03:16:56.341Z,97694.13
2023-02-19T03:19:26.011Z,97691.09
2023-02-19T03:21:55.755Z,97681.13
2023-02-19T03:24:47.005Z,97677.66
2023-02-19T03:27:18.688Z,97679.56
2023-02-19T03:29:47.661Z,97668.38
2023-02-19T03:32:22.140Z,97673.03
2023-02-19T03:35:09.782Z,97688.50
2023-02-19T03:37:45.461Z,97681.97
2023-02-19T03:40:17.316Z,97690.44
2023-02-19T03:42:56.157Z,97695.09
2023-02-19T03:45:46.666Z,97700.53
2023-02-19T03:48:30.366Z,97713.19
2023-02-19T03:51:24.840Z,97712.78
2023-02-19T03:53:54.294Z,97693.13
2023-02-19T03:56:32.124Z,97683.50
2023-02-19T03:59:17.241Z,97696.97
2023-02-19T04:01:59.211Z,97689.22
2023-02-19T04:04:36.433Z,97686.47
2023-02-19T04:07:05.267Z,97684.53
2023-02-19T04:09:48.171Z,97687.16
2023-02-19T04:12:16.726Z,97690.59
2023-02-19T04:14:58.897Z,97694.94
2023-02-19T04:17:39.283Z,97677.16
2023-02-19T04:20:12.525Z,97685.25
2023-02-19T04:22:40.235Z,97686.84
2023-02-19T04:25:08.324Z,97687.25
2023-02-19T04:27:39.341Z,97683.38
2023-02-19T04:30:12.782Z,97677.56
2023-02-19T04:32:41.617Z,97662.53
2023-02-19T04:35:10.882Z,97667.97
2023-02-19T04:37:37.482Z,97638.97
2023-02-19T04:40:04.372Z,97660.25
2023-02-19T04:42:33.469Z,97664.91
2023-02-19T04:45:00.082Z,97663.41
2023-02-19T04:47:29.048Z,97642.09
2023-02-19T04:49:55.585Z,97664.50
2023-02-19T04:52:24.523Z,97664.00
2023-02-19T04:54:51.181Z,97674.34
2023-02-19T04:57:17.869Z,97684.72
2023-02-19T04:59:44.475Z,97684.81
2023-02-19T05:02:13.249Z,97687.59
2023-02-19T05:04:39.822Z,97689.50
2023-02-19T05:07:06.406Z,97682.97
2023-02-19T05:09:32.919Z,97693.84
2023-02-19T05:11:59.429Z,97690.00
2023-02-19T05:14:25.983Z,97692.34
2023-02-19T05:16:52.553Z,97681.94
2023-02-19T05:19:23.822Z,97685.03
2023-02-19T05:21:52.885Z,97677.72
2023-02-19T05:24:19.628Z,97687.00
2023-02-19T05:26:48.274Z,97681.22
2023-02-19T05:29:14.843Z,97675.81
2023-02-19T05:31:41.704Z,97672.72
2023-02-19T05:34:11.300Z,97668.88
2023-02-19T05:36:40.445Z,97675.41
2023-02-19T05:39:07.473Z,97675.81
2023-02-19T05:41:37.135Z,97680.44
2023-02-19T05:44:05.989Z,97676.56
2023-02-19T05:46:32.710Z,97677.31
2023-02-19T05:49:02.040Z,97687.34
2023-02-19T05:51:31.012Z,97681.13
2023-02-19T05:54:00.056Z,97687.59
2023-02-19T05:56:41.060Z,97693.75
2023-02-19T05:59:14.187Z,97704.53
2023-02-19T06:01:43.547Z,97704.91
2023-02-19T06:04:14.183Z,97707.56
2023-02-19T06:06:41.984Z,97706.38
2023-02-19T06:09:11.792Z,97724.09
2023-02-19T06:11:38.979Z,97739.94
2023-02-19T06:14:06.285Z,97740.34
2023-02-19T06:16:35.330Z,97727.28
2023-02-19T06:19:05.111Z,97720.75
2023-02-19T06:21:34.452Z,97728.47
2023-02-19T06:24:08.819Z,97735.81
2023-02-19T06:26:38.181Z,97741.59
2023-02-19T06:29:04.745Z,97736.97
2023-02-19T06:31:31.388Z,97729.72
2023-02-19T06:34:06.787Z,97730.50
2023-02-19T06:36:33.460Z,97740.13
2023-02-19T06:39:00.684Z,97738.22
2023-02-19T06:41:27.238Z,97735.56
2023-02-19T06:43:53.914Z,97741.72
2023-02-19T06:46:20.500Z,97739.44
2023-02-19T06:48:49.401Z,97746.72
2023-02-19T06:51:26.367Z,97749.81
2023-02-19T06:53:53.591Z,97748.66
2023-02-19T06:56:25.653Z,97752.19
2023-02-19T06:58:57.902Z,97766.13
2023-02-19T07:01:30.199Z,97759.97
2023-02-19T07:03:59.655Z,97766.50
2023-02-19T07:06:32.678Z,97774.31
2023-02-19T07:09:02.497Z,97782.84
2023-02-19T07:11:31.526Z,97782.84
2023-02-19T07:14:05.190Z,97784.47
2023-02-19T07:16:37.199Z,97794.13
2023-02-19T07:19:07.035Z,97789.88
2023-02-19T07:21:37.700Z,97799.53
2023-02-19T07:24:07.415Z,97809.47
2023-02-19T07:26:33.999Z,97805.72
2023-02-19T07:29:03.540Z,97818.59
2023-02-19T07:31:30.308Z,97824.88
2023-02-19T07:33:59.188Z,97830.38
2023-02-19T07:36:25.808Z,97827.72
2023-02-19T07:39:02.216Z,97827.78
2023-02-19T07:41:31.430Z,97839.81
2023-02-19T07:44:00.389Z,97845.09
2023-02-19T07:46:30.081Z,97840.81
2023-02-19T07:48:59.368Z,97845.94
2023-02-19T07:51:26.058Z,97842.13
2023-02-19T07:53:52.706Z,97854.19
2023-02-19T07:56:20.469Z,97863.03
2023-02-19T07:58:49.784Z,97867.66
2023-02-19T08:01:40.433Z,97864.88
2023-02-19T08:04:07.174Z,97874.56
2023-02-19T08:06:33.737Z,97872.28
2023-02-19T08:09:06.353Z,97874.22
2023-02-19T08:11:54.068Z,97873.03
2023-02-19T08:14:27.143Z,97880.88
2023-02-19T08:16:54.202Z,97874.69
2023-02-19T08:19:21.104Z,97883.59
2023-02-19T08:21:50.700Z,97888.22
2023-02-19T08:24:19.772Z,97890.53
2023-02-19T08:26:48.444Z,97892.84
2023-02-19T08:29:15.020Z,97887.38
2023-02-19T08:31:44.104Z,97898.53
2023-02-19T08:34:10.683Z,97900.06
2023-02-19T08:36:38.282Z,97898.13
2023-02-19T08:39:07.276Z,97901.19
2023-02-19T08:41:33.807Z,97907.81
2023-02-19T08:44:02.702Z,97908.16
2023-02-19T08:46:29.245Z,97902.03
2023-02-19T08:48:55.847Z,97896.69
2023-02-19T08:51:22.384Z,97893.63
2023-02-19T08:53:51.144Z,97908.00
2023-02-19T08:56:20.051Z,97902.97
2023-02-19T08:58:49.086Z,97912.66
2023-02-19T09:01:19.489Z,97911.50
2023-02-19T09:03:48.645Z,97920.03
2023-02-19T09:06:17.772Z,97910.75
2023-02-19T09:08:44.995Z,97915.41
2023-02-19T09:11:12.186Z,97917.34
2023-02-19T09:13:41.498Z,97914.22
2023-02-19T09:16:10.563Z,97922.34
2023-02-19T09:18:37.305Z,97914.63
2023-02-19T09:21:05.742Z,97918.88
2023-02-19T09:23:33.883Z,97925.88
2023-02-19T09:26:06.753Z,97924.69
2023-02-19T09:28:41.519Z,97929.72
2023-02-19T09:31:11.922Z,97933.19
2023-02-19T09:33:44.217Z,97930.50
2023-02-19T09:36:14.424Z,97932.03
2023-02-19T09:38:45.742Z,97932.44
2023-02-19T09:41:46.501Z,97936.31
2023-02-19T09:44:23.899Z,97937.81
2023-02-19T09:46:53.008Z,97929.28
2023-02-19T09:49:28.750Z,97933.56
2023-02-19T09:52:06.338Z,97935.09
2023-02-19T09:54:39.180Z,97936.25
2023-02-19T09:57:14.105Z,97931.97
2023-02-19T09:59:44.944Z,97934.28
2023-02-19T10:02:13.536Z,97929.25
2023-02-19T10:04:43.281Z,97929.63
2023-02-19T10:07:20.757Z,97935.06
2023-02-19T10:10:01.115Z,97939.31
2023-02-19T10:12:32.214Z,97940.06
2023-02-19T10:15:11.213Z,97949.75
2023-02-19T10:17:38.141Z,97943.94
2023-02-19T10:20:05.270Z,97947.81
2023-02-19T10:22:36.593Z,97945.09
2023-02-19T10:25:03.601Z,97952.84
2023-02-19T10:27:32.733Z,97948.19
2023-02-19T10:30:02.823Z,97943.59
2023-02-19T10:32:29.848Z,97935.47
2023-02-19T10:35:19.234Z,97938.19
2023-02-19T10:37:52.306Z,97933.47
2023-02-19T10:40:27.762Z,97924.22
2023-02-19T10:42:58.989Z,97926.88
2023-02-19T10:45:39.662Z,97929.22
2023-02-19T10:48:19.777Z,97919.19
2023-02-19T10:50:56.043Z,97916.53
2023-02-19T10:53:24.328Z,97920.41
2023-02-19T10:56:08.224Z,97919.22
2023-02-19T10:58:36.832Z,97927.75
2023-02-19T11:01:19.495Z,97933.19
2023-02-19T11:03:51.604Z,97932.00
2023-02-19T11:06:21.625Z,97930.81
2023-02-19T11:08:50.957Z,97933.94
2023-02-19T11:11:35.944Z,97937.03
2023-02-19T11:14:16.489Z,97940.91
2023-02-19T11:16:49.807Z,97935.50
2023-02-19T11:19:27.628Z,97922.34
2023-02-19T11:21:55.396Z,97920.81
2023-02-19T11:24:33.948Z,97915.00
2023-02-19T11:27:03.867Z,97914.63
2023-02-19T11:29:34.783Z,97903.78
2023-02-19T11:32:22.318Z,97897.59
2023-02-19T11:34:48.939Z,97902.19
2023-02-19T11:37:22.147Z,97897.97
2023-02-19T11:39:50.660Z,97909.13
2023-02-19T11:42:35.855Z,97907.50
2023-02-19T11:45:22.487Z,97902.09
2023-02-19T11:48:20.251Z,97900.19
2023-02-19T11:51:02.861Z,97895.09
2023-02-19T11:53:32.434Z,97898.16
2023-02-19T11:56:39.704Z,97885.38
2023-02-19T11:59:31.918Z,97884.41
2023-02-19T12:02:29.202Z,97872.31
2023-02-19T12:05:07.804Z,97874.97
2023-02-19T12:07:43.404Z,97876.47
2023-02-19T12:10:13.180Z,97859.41
2023-02-19T12:12:52.556Z,97887.03
2023-02-19T12:15:30.073Z,97882.88
2023-02-19T12:17:56.608Z,97882.97
2023-02-19T12:20:42.618Z,97891.41
2023-02-19T12:23:31.143Z,97873.97
2023-02-19T12:26:14.428Z,97882.88
2023-02-19T12:29:00.610Z,97878.22
2023-02-19T12:31:45.338Z,97869.63
2023-02-19T12:34:16.447Z,97869.16
2023-02-19T12:37:20.535Z,97859.53
2023-02-19T12:39:51.722Z,97856.03
2023-02-19T12:42:39.198Z,97859.53
2023-02-19T12:45:20.364Z,97857.13
2023-02-19T12:48:00.340Z,97867.63
2023-02-19T12:50:27.905Z,97860.25
2023-02-19T12:53:12.644Z,97854.09
2023-02-19T12:55:47.063Z,97858.00
2023-02-19T12:58:22.299Z,97868.59
2023-02-19T13:00:53.804Z,97878.81
2023-02-19T13:03:32.358Z,97884.59
2023-02-19T13:06:08.882Z,97876.50
2023-02-19T13:08:48.798Z,97881.53
2023-02-19T13:11:30.898Z,97886.97
2023-02-19T13:14:07.061Z,97883.13
2023-02-19T13:16:38.134Z,97881.16
2023-02-19T13:19:07.049Z,97873.06
2023-02-19T13:21:56.026Z,97876.16
2023-02-19T13:24:28.959Z,97864.16
2023-02-19T13:27:17.543Z,97853.97
2023-02-19T13:29:53.442Z,97830.63
2023-02-19T13:32:48.398Z,97835.16
2023-02-19T13:35:35.747Z,97841.72
2023-02-19T13:40:43.789Z,97831.91
2023-02-19T13:43:25.685Z,97838.06
2023-02-19T13:46:03.811Z,97855.91
2023-02-19T13:48:33.869Z,97834.84
2023-02-19T13:51:12.931Z,97830.38
2023-02-19T13:53:42.771Z,97846.59
2023-02-19T13:56:35.376Z,97846.13
2023-02-19T13:59:11.061Z,97848.78
2023-02-19T14:02:05.914Z,97859.19
2023-02-19T14:04:32.457Z,97848.38
2023-02-19T14:07:05.046Z,97866.50
2023-02-19T14:09:34.645Z,97855.03
2023-02-19T14:12:09.524Z,97853.50
2023-02-19T14:14:40.862Z,97854.25
2023-02-19T14:17:10.129Z,97851.06
2023-02-19T14:19:39.607Z,97851.34
2023-02-19T14:22:47.405Z,97844.84
2023-02-19T14:25:32.090Z,97857.00
2023-02-19T14:28:13.105Z,97842.38
2023-02-19T14:30:54.926Z,97850.16
2023-02-19T14:33:26.767Z,97850.09
2023-02-19T14:35:59.031Z,97832.69
2023-02-19T14:38:32.023Z,97846.28
2023-02-19T14:41:01.085Z,97854.91
2023-02-19T14:43:31.075Z,97841.69
2023-02-19T14:46:07.324Z,97856.06
2023-02-19T14:48:38.874Z,97858.00
2023-02-19T14:51:28.229Z,97872.00
2023-02-19T14:53:56.728Z,97853.53
2023-02-19T14:56:29.948Z,97862.38
2023-02-19T14:59:27.965Z,97856.28
2023-02-19T15:02:03.395Z,97848.13
2023-02-19T15:04:35.999Z,97864.03
2023-02-19T15:07:15.955Z,97852.84
2023-02-19T15:09:51.865Z,97864.47
2023-02-19T15:12:21.877Z,97857.88
2023-02-19T15:14:51.260Z,97869.13
2023-02-19T15:17:28.958Z,97874.94
2023-02-19T15:19:57.512Z,97877.28
2023-02-19T15:22:25.986Z,97874.25
2023-02-19T15:24:52.584Z,97871.91
2023-02-19T15:27:21.893Z,97879.69
2023-02-19T15:29:53.283Z,97896.69
2023-02-19T15:32:26.641Z,97893.28
2023-02-19T15:34:58.409Z,97890.91
2023-02-19T15:37:27.900Z,97902.53
2023-02-19T15:39:56.219Z,97903.69
2023-02-19T15:42:30.546Z,97909.91
2023-02-19T15:45:05.110Z,97911.06
2023-02-19T15:47:43.750Z,97908.00
2023-02-19T15:50:17.455Z,97909.16
2023-02-19T15:52:53.282Z,97911.09
2023-02-19T15:56:07.173Z,97911.50
2023-02-19T15:58:42.856Z,97908.81
2023-02-19T16:01:32.788Z,97916.16
2023-02-19T16:04:02.096Z,97911.13
2023-02-19T16:06:50.073Z,97920.03
2023-02-19T16:09:23.186Z,97928.94
2023-02-19T16:11:56.530Z,97937.47
2023-02-19T16:14:30.926Z,97927.00
2023-02-19T16:17:07.490Z,97936.31
2023-02-19T16:19:42.691Z,97939.78
2023-02-19T16:22:14.758Z,97942.47
2023-02-19T16:24:48.420Z,97944.81
2023-02-19T16:27:28.253Z,97957.56
2023-02-19T16:29:57.661Z,97962.59
2023-02-19T16:32:24.487Z,97959.88
2023-02-19T16:34:53.690Z,97970.72
2023-02-19T16:37:35.236Z,97971.47
2023-02-19T16:40:24.868Z,97973.81
2023-02-19T16:42:51.987Z,97980.75
2023-02-19T16:45:21.306Z,97988.88
2023-02-19T16:47:51.451Z,97978.78
2023-02-19T16:50:21.895Z,97980.31
2023-02-19T16:52:55.577Z,97978.75
2023-02-19T16:55:23.267Z,97988.03
2023-02-19T16:57:53.166Z,97998.84
2023-02-19T17:00:22.784Z,97996.88
2023-02-19T17:02:52.191Z,98002.69
2023-02-19T17:05:20.594Z,98003.06
2023-02-19T17:07:47.921Z,98006.50
2023-02-19T17:10:23.880Z,98001.06
2023-02-19T17:12:51.581Z,98015.38
2023-02-19T17:15:20.521Z,98018.06
2023-02-19T17:17:47.365Z,98012.22
2023-02-19T17:20:19.316Z,98019.56
2023-02-19T17:22:45.883Z,98018.72
2023-02-19T17:25:12.461Z,98021.75
2023-02-19T17:27:38.970Z,98019.88
2023-02-19T17:30:21.251Z,98026.81
2023-02-19T17:32:50.061Z,98028.34
2023-02-19T17:35:19.078Z,98022.91
2023-02-19T17:37:48.142Z,98024.84
2023-02-19T17:40:33.371Z,98020.94
2023-02-19T17:43:02.407Z,98029.44
2023-02-19T17:45:31.256Z,98027.09
2023-02-19T17:47:57.957Z,98018.63
2023-02-19T17:50:29.696Z,98022.09
2023-02-19T17:52:59.501Z,98024.13
2023-02-19T17:55:31.008Z,98011.81
2023-02-19T17:57:59.774Z,98012.66
2023-02-19T18:00:28.930Z,98012.28
2023-02-19T18:02:58.144Z,98018.13
2023-02-19T18:05:24.815Z,98019.69
2023-02-19T18:07:54.935Z,98018.16
2023-02-19T18:10:23.526Z,98028.19
2023-02-19T18:12:54.946Z,98024.63
2023-02-19T18:15:28.171Z,98036.97
2023-02-19T18:17:56.412Z,98040.84
2023-02-19T18:20:25.567Z,98044.34
2023-02-19T18:22:52.707Z,98037.38
2023-02-19T18:25:22.611Z,98035.81
2023-02-19T18:27:52.435Z,98045.88
2023-02-19T18:30:20.582Z,98040.47
2023-02-19T18:32:49.513Z,98048.59
2023-02-19T18:35:20.871Z,98051.28
2023-02-19T18:37:55.931Z,98061.34
2023-02-19T18:40:25.966Z,98055.53
2023-02-19T18:42:54.843Z,98053.22
2023-02-19T18:45:21.733Z,98053.22
2023-02-19T18:47:52.978Z,98044.75
2023-02-19T18:50:19.925Z,98052.06
2023-02-19T18:52:47.078Z,98063.28
2023-02-19T18:55:13.895Z,98072.53
2023-02-19T18:57:40.633Z,98068.31
2023-02-19T19:00:08.478Z,98072.16
2023-02-19T19:02:49.004Z,98083.75
2023-02-19T19:05:21.280Z,98084.13
2023-02-19T19:07:50.366Z,98076.03
2023-02-19T19:10:17.873Z,98065.19
2023-02-19T19:12:46.779Z,98055.16
2023-02-19T19:15:18.166Z,98047.44
2023-02-19T19:17:48.340Z,98046.66
2023-02-19T19:20:21.316Z,98050.88
2023-02-19T19:22:53.409Z,98053.94
2023-02-19T19:25:21.262Z,98071.34
2023-02-19T19:27:50.347Z,98059.75
2023-02-19T19:30:17.627Z,98052.78
2023-02-19T19:32:44.261Z,98052.00
2023-02-19T19:35:11.007Z,98050.47
2023-02-19T19:37:37.785Z,98041.91
2023-02-19T19:40:05.053Z,98042.66
2023-02-19T19:42:31.666Z,98058.44
2023-02-19T19:45:01.062Z,98061.88
2023-02-19T19:47:30.077Z,98070.72
2023-02-19T19:49:56.740Z,98068.78
2023-02-19T19:52:23.290Z,98067.22
2023-02-19T19:54:53.987Z,98072.63
2023-02-19T19:57:21.145Z,98079.94
2023-02-19T19:59:51.326Z,98074.16
2023-02-19T20:02:18.820Z,98079.91
2023-02-19T20:04:47.633Z,98079.13
2023-02-19T20:07:14.227Z,98084.91
2023-02-19T20:09:40.809Z,98091.09
2023-02-19T20:12:08.107Z,98081.00
2023-02-19T20:14:34.805Z,98079.84
2023-02-19T20:17:03.871Z,98079.44
2023-02-19T20:19:30.482Z,98083.34
2023-02-19T20:21:57.072Z,98080.31
2023-02-19T20:24:29.943Z,98089.16
2023-02-19T20:27:01.916Z,98084.91
2023-02-19T20:29:37.506Z,98094.56
2023-02-19T20:32:04.248Z,98092.28
2023-02-19T20:34:31.022Z,98099.66
2023-02-19T20:36:58.095Z,98105.06
2023-02-19T20:39:28.960Z,98110.47
2023-02-19T20:41:56.596Z,98121.69
2023-02-19T20:44:23.250Z,98119.81
2023-02-19T20:46:51.384Z,98124.44
2023-02-19T20:49:20.572Z,98120.97
2023-02-19T20:51:54.786Z,98129.53
2023-02-19T20:54:25.032Z,98113.66
2023-02-19T20:56:58.194Z,98119.53
2023-02-19T20:59:34.764Z,98126.44
2023-02-19T21:02:04.154Z,98121.81
2023-02-19T21:04:30.794Z,98128.00
2023-02-19T21:06:59.841Z,98125.31
2023-02-19T21:09:28.619Z,98131.13
2023-02-19T21:11:58.518Z,98128.78
2023-02-19T21:14:26.686Z,98129.56
2023-02-19T21:16:55.658Z,98126.09
2023-02-19T21:19:24.980Z,98128.78
2023-02-19T21:21:51.537Z,98131.13
2023-02-19T21:24:23.064Z,98128.47
2023-02-19T21:26:49.656Z,98123.81
2023-02-19T21:29:21.925Z,98135.44
2023-02-19T21:31:51.163Z,98133.50
2023-02-19T21:34:22.483Z,98133.47
2023-02-19T21:36:53.752Z,98134.25
2023-02-19T21:39:24.366Z,98131.91
2023-02-19T21:41:58.635Z,98128.06
2023-02-19T21:44:25.219Z,98123.00
2023-02-19T21:46:51.839Z,98127.25
2023-02-19T21:49:20.931Z,98128.78
2023-02-19T21:51:50.543Z,98125.72
2023-02-19T21:54:25.379Z,98137.69
2023-02-19T21:56:53.125Z,98125.72
2023-02-19T21:59:21.418Z,98133.81
2023-02-19T22:01:50.767Z,98143.09
2023-02-19T22:04:20.477Z,98139.19
2023-02-19T22:06:47.420Z,98131.50
2023-02-19T22:09:16.922Z,98132.63
2023-02-19T22:11:43.517Z,98129.16
2023-02-19T22:14:10.299Z,98132.22
2023-02-19T22:16:37.028Z,98137.63
2023-02-19T22:19:04.066Z,98144.19
2023-02-19T22:21:33.563Z,98144.56
2023-02-19T22:24:02.444Z,98146.84
2023-02-19T22:26:36.375Z,98151.88
2023-02-19T22:29:08.322Z,98157.25
2023-02-19T22:31:35.541Z,98158.41
2023-02-19T22:34:02.484Z,98154.97
2023-02-19T22:36:33.837Z,98142.19
2023-02-19T22:39:03.747Z,98160.28
2023-02-19T22:41:35.578Z,98167.19
2023-02-19T22:44:06.887Z,98164.16
2023-02-19T22:46:35.720Z,98162.59
2023-02-19T22:49:06.641Z,98164.16
2023-02-19T22:51:35.490Z,98166.81
2023-02-19T22:54:02.385Z,98169.94
2023-02-19T22:56:29.441Z,98161.00
2023-02-19T22:58:57.512Z,98165.22
2023-02-19T23:01:25.011Z,98157.50
2023-02-19T23:03:52.903Z,98146.63
2023-02-19T23:06:25.618Z,98146.19
2023-02-19T23:08:53.742Z,98142.63
2023-02-19T23:11:26.072Z,98151.84
2023-02-19T23:13:55.701Z,98147.53
2023-02-19T23:16:27.056Z,98143.22
2023-02-19T23:18:53.784Z,98146.66
2023-02-19T23:21:23.577Z,98146.22
2023-02-19T23:23:53.554Z,98154.28
2023-02-19T23:26:22.470Z,98152.72
2023-02-19T23:28:52.754Z,98151.56
2023-02-19T23:31:19.581Z,98146.94
2023-02-19T23:33:48.466Z,98145.81
2023-02-19T23:36:15.687Z,98151.56
2023-02-19T23:38:48.665Z,98152.41
2023-02-19T23:41:16.933Z,98164.34
2023-02-19T23:43:44.009Z,98167.88
2023-02-19T23:46:19.830Z,98164.31
2023-02-19T23:48:46.514Z,98158.53
2023-02-19T23:51:16.388Z,98156.97
2023-02-19T23:53:42.971Z,98160.44
2023-02-19T23:56:09.745Z,98162.59
2023-02-19T23:58:38.640Z,98167.28
